createdAt,value
2022-11-13T00:01:57.660Z,20.00
2022-11-13T00:04:44.267Z,19.65
2022-11-13T00:07:30.746Z,19.90
2022-11-13T00:10:17.880Z,19.10
2022-11-13T00:13:04.542Z,18.60
2022-11-13T00:15:59.609Z,18.43
2022-11-13T00:18:46.313Z,20.63
2022-11-13T00:21:33.244Z,19.60
2022-11-13T00:24:19.956Z,20.40
2022-11-13T00:27:06.212Z,19.33
2022-11-13T00:29:52.701Z,20.48
2022-11-13T00:32:40.967Z,19.52
2022-11-13T00:35:27.405Z,19.67
2022-11-13T00:38:13.875Z,18.88
2022-11-13T00:41:01.354Z,20.02
2022-11-13T00:43:47.941Z,17.65
2022-11-13T00:46:34.881Z,19.83
2022-11-13T00:49:22.783Z,19.17
2022-11-13T00:52:09.282Z,19.63
2022-11-13T00:54:55.614Z,21.13
2022-11-13T00:57:42.067Z,20.65
2022-11-13T01:00:28.538Z,21.05
2022-11-13T01:03:16.509Z,18.83
2022-11-13T01:06:11.210Z,18.95
2022-11-13T01:08:59.984Z,19.20
2022-11-13T01:11:46.648Z,19.05
2022-11-13T01:14:32.964Z,19.55
2022-11-13T01:17:19.291Z,19.58
2022-11-13T01:20:06.782Z,19.20
2022-11-13T01:22:54.686Z,19.48
2022-11-13T01:25:41.373Z,19.48
2022-11-13T01:28:28.074Z,20.23
2022-11-13T01:31:16.755Z,19.23
2022-11-13T01:34:03.063Z,18.90
2022-11-13T01:36:49.563Z,20.08
2022-11-13T01:39:37.449Z,18.63
2022-11-13T01:42:24.080Z,17.70
2022-11-13T01:45:48.194Z,18.60
2022-11-13T01:48:39.829Z,17.60
2022-11-13T01:51:31.009Z,18.13
2022-11-13T01:54:21.841Z,17.45
2022-11-13T01:57:10.140Z,17.45
2022-11-13T01:59:59.611Z,17.13
2022-11-13T02:02:45.933Z,17.48
2022-11-13T02:05:32.352Z,17.98
2022-11-13T02:08:18.809Z,17.20
2022-11-13T02:11:05.292Z,17.25
2022-11-13T02:13:52.972Z,16.48
2022-11-13T02:16:42.341Z,16.85
2022-11-13T02:19:33.437Z,16.98
2022-11-13T02:22:27.273Z,16.92
2022-11-13T02:25:15.533Z,17.40
2022-11-13T02:28:02.607Z,16.52
2022-11-13T02:30:49.436Z,17.48
2022-11-13T02:33:36.545Z,16.77
2022-11-13T02:36:25.283Z,17.05
2022-11-13T02:39:14.516Z,17.15
2022-11-13T02:42:02.293Z,16.60
2022-11-13T02:44:48.933Z,17.93
2022-11-13T02:47:35.684Z,18.00
2022-11-13T02:50:22.310Z,16.97
2022-11-13T02:53:08.738Z,17.98
2022-11-13T02:55:55.473Z,17.17
2022-11-13T02:58:43.741Z,16.53
2022-11-13T03:01:30.392Z,16.10
2022-11-13T03:04:17.434Z,17.33
2022-11-13T03:07:03.980Z,16.70
2022-11-13T03:09:50.553Z,17.17
2022-11-13T03:12:36.945Z,17.37
2022-11-13T03:15:24.508Z,17.20
2022-11-13T03:18:12.040Z,16.97
2022-11-13T03:20:58.503Z,16.93
2022-11-13T03:23:45.651Z,16.73
2022-11-13T03:26:32.048Z,17.07
2022-11-13T03:29:18.566Z,16.53
2022-11-13T03:32:07.172Z,17.10
2022-11-13T03:34:53.453Z,16.60
2022-11-13T03:37:39.945Z,16.40
2022-11-13T03:40:26.279Z,16.23
2022-11-13T03:43:12.605Z,16.77
2022-11-13T03:45:59.548Z,16.53
2022-11-13T03:48:47.569Z,16.37
2022-11-13T03:51:34.261Z,16.23
2022-11-13T03:54:20.907Z,15.80
2022-11-13T03:57:07.244Z,15.63
2022-11-13T03:59:53.805Z,16.60
2022-11-13T04:02:40.136Z,15.23
2022-11-13T04:05:28.057Z,16.27
2022-11-13T04:08:14.860Z,16.63
2022-11-13T04:11:07.917Z,15.37
2022-11-13T04:13:54.775Z,15.70
2022-11-13T04:16:41.111Z,15.90
2022-11-13T04:19:27.794Z,16.37
2022-11-13T04:22:15.483Z,16.30
2022-11-13T04:25:01.886Z,15.70
2022-11-13T04:27:50.240Z,16.87
2022-11-13T04:30:36.629Z,16.37
2022-11-13T04:33:23.367Z,16.63
2022-11-13T04:36:10.243Z,17.30
2022-11-13T04:38:57.890Z,16.07
2022-11-13T04:42:01.832Z,16.57
2022-11-13T04:44:48.684Z,17.20
2022-11-13T04:47:35.140Z,16.02
2022-11-13T04:50:22.869Z,16.27
2022-11-13T04:53:09.122Z,16.17
2022-11-13T04:55:56.778Z,16.50
2022-11-13T04:58:43.373Z,15.73
2022-11-13T05:01:29.876Z,15.53
2022-11-13T05:04:17.245Z,15.63
2022-11-13T05:07:03.499Z,16.93
2022-11-13T05:09:50.347Z,14.93
2022-11-13T05:12:38.093Z,15.87
2022-11-13T05:15:24.496Z,15.97
2022-11-13T05:18:10.906Z,16.03
2022-11-13T05:20:57.278Z,15.53
2022-11-13T05:23:43.676Z,15.50
2022-11-13T05:26:31.085Z,16.00
2022-11-13T05:29:19.296Z,15.27
2022-11-13T05:32:05.864Z,16.67
2022-11-13T05:34:52.526Z,14.93
2022-11-13T05:37:39.193Z,14.93
2022-11-13T05:40:25.505Z,14.67
2022-11-13T05:43:11.890Z,14.20
2022-11-13T05:46:04.982Z,14.83
2022-11-13T05:48:54.684Z,14.97
2022-11-13T05:51:41.372Z,14.43
2022-11-13T05:54:27.971Z,14.40
2022-11-13T05:57:14.292Z,15.67
2022-11-13T06:00:00.728Z,14.10
2022-11-13T06:02:48.285Z,14.67
2022-11-13T06:05:36.416Z,15.03
2022-11-13T06:08:22.814Z,14.60
2022-11-13T06:11:11.433Z,14.80
2022-11-13T06:13:58.912Z,14.13
2022-11-13T06:16:45.639Z,13.87
2022-11-13T06:19:33.469Z,14.53
2022-11-13T06:22:20.043Z,14.67
2022-11-13T06:25:07.477Z,14.73
2022-11-13T06:27:54.329Z,15.37
2022-11-13T06:30:40.848Z,14.20
2022-11-13T06:33:29.734Z,14.63
2022-11-13T06:36:19.063Z,14.83
2022-11-13T06:39:08.765Z,14.67
2022-11-13T06:41:55.316Z,14.33
2022-11-13T06:44:41.721Z,15.03
2022-11-13T06:47:29.129Z,15.33
2022-11-13T06:50:16.057Z,13.70
2022-11-13T06:53:04.201Z,14.57
2022-11-13T06:55:51.752Z,14.83
2022-11-13T06:58:39.249Z,15.07
2022-11-13T07:01:27.329Z,13.60
2022-11-13T07:04:14.408Z,14.10
2022-11-13T07:07:00.916Z,14.33
2022-11-13T07:09:49.253Z,13.70
2022-11-13T07:12:35.937Z,14.10
2022-11-13T07:15:22.677Z,13.90
2022-11-13T07:18:09.109Z,14.17
2022-11-13T07:20:55.564Z,15.10
2022-11-13T07:23:43.519Z,14.17
2022-11-13T07:26:31.917Z,15.27
2022-11-13T07:29:18.493Z,16.40
2022-11-13T07:32:05.003Z,15.10
2022-11-13T07:34:51.773Z,15.77
2022-11-13T07:37:38.870Z,15.77
2022-11-13T07:40:25.932Z,16.40
2022-11-13T07:43:14.117Z,17.10
2022-11-13T07:46:01.408Z,16.70
2022-11-13T07:48:48.018Z,16.23
2022-11-13T07:51:34.426Z,16.23
2022-11-13T07:54:20.840Z,17.03
2022-11-13T07:57:07.200Z,16.83
2022-11-13T07:59:55.152Z,16.17
2022-11-13T08:02:42.101Z,16.00
2022-11-13T08:05:28.505Z,15.77
2022-11-13T08:08:16.156Z,16.37
2022-11-13T08:11:05.913Z,16.53
2022-11-13T08:13:53.276Z,15.63
2022-11-13T08:16:40.988Z,15.80
2022-11-13T08:19:27.477Z,16.77
2022-11-13T08:22:13.957Z,15.40
2022-11-13T08:25:00.421Z,16.60
2022-11-13T08:27:47.087Z,16.50
2022-11-13T08:30:33.917Z,16.53
2022-11-13T08:33:21.546Z,16.60
2022-11-13T08:36:08.594Z,18.70
2022-11-13T08:38:54.950Z,20.23
2022-11-13T08:41:41.389Z,17.50
2022-11-13T08:44:27.933Z,17.77
2022-11-13T08:47:14.474Z,15.82
2022-11-13T08:50:02.687Z,15.25
2022-11-13T08:52:49.132Z,12.50
2022-11-13T08:55:35.640Z,13.00
2022-11-13T08:58:22.390Z,11.32
2022-11-13T09:01:08.940Z,11.35
2022-11-13T09:03:55.328Z,10.88
2022-11-13T09:06:43.663Z,11.77
2022-11-13T09:09:30.252Z,11.65
2022-11-13T09:12:17.048Z,11.80
2022-11-13T09:15:03.603Z,10.30
2022-11-13T09:17:50.112Z,10.60
2022-11-13T09:20:36.708Z,10.18
2022-11-13T09:23:24.853Z,11.82
2022-11-13T09:26:11.532Z,11.85
2022-11-13T09:28:58.351Z,9.85
2022-11-13T09:31:45.313Z,9.75
2022-11-13T09:34:33.671Z,10.35
2022-11-13T09:37:20.053Z,10.02
2022-11-13T09:40:11.855Z,9.93
2022-11-13T09:42:58.768Z,9.50
2022-11-13T09:45:45.536Z,9.40
2022-11-13T09:48:35.619Z,11.93
2022-11-13T09:51:27.201Z,11.20
2022-11-13T09:54:15.600Z,12.63
2022-11-13T09:57:21.668Z,10.32
2022-11-13T10:00:14.991Z,10.27
2022-11-13T10:03:17.678Z,10.00
2022-11-13T10:06:17.410Z,9.38
2022-11-13T10:09:14.017Z,9.65
2022-11-13T10:12:07.548Z,9.98
2022-11-13T10:14:56.598Z,10.32
2022-11-13T10:17:47.168Z,10.20
2022-11-13T10:20:38.307Z,9.85
2022-11-13T10:23:29.599Z,9.38
2022-11-13T10:26:18.058Z,9.10
2022-11-13T10:29:14.635Z,9.23
2022-11-13T10:32:14.660Z,9.30
2022-11-13T10:35:23.101Z,9.23
2022-11-13T10:38:17.416Z,9.07
2022-11-13T10:41:12.346Z,9.82
2022-11-13T10:43:59.634Z,8.90
2022-11-13T10:46:47.682Z,9.20
2022-11-13T10:49:34.581Z,9.02
2022-11-13T10:52:23.640Z,8.80
2022-11-13T10:55:23.348Z,8.70
2022-11-13T10:58:15.639Z,8.73
2022-11-13T11:01:02.153Z,8.43
2022-11-13T11:03:53.601Z,8.95
2022-11-13T11:07:17.775Z,8.27
2022-11-13T11:09:49.818Z,9.43
2022-11-13T11:12:36.650Z,9.02
2022-11-13T11:15:27.932Z,8.48
2022-11-13T11:18:24.897Z,9.95
2022-11-13T11:21:19.482Z,8.93
2022-11-13T11:24:13.200Z,9.40
2022-11-13T11:27:04.257Z,10.77
2022-11-13T11:29:56.642Z,10.38
2022-11-13T11:32:48.233Z,9.73
2022-11-13T11:35:42.480Z,9.32
2022-11-13T11:38:36.469Z,8.93
2022-11-13T11:41:29.977Z,9.85
2022-11-13T11:44:23.685Z,8.13
2022-11-13T11:47:15.998Z,8.38
2022-11-13T11:50:03.603Z,9.65
2022-11-13T11:53:01.201Z,8.40
2022-11-13T11:56:15.533Z,8.57
2022-11-13T11:59:22.462Z,8.50
2022-11-13T12:02:42.508Z,9.05
2022-11-13T12:05:32.361Z,8.73
2022-11-13T12:08:31.570Z,8.45
2022-11-13T12:11:29.348Z,8.23
2022-11-13T12:14:24.238Z,9.15
2022-11-13T12:17:30.624Z,10.45
2022-11-13T12:20:27.599Z,9.10
2022-11-13T12:23:43.231Z,8.60
2022-11-13T12:26:38.671Z,9.73
2022-11-13T12:29:40.280Z,9.07
2022-11-13T12:32:40.853Z,8.75
2022-11-13T12:35:28.887Z,8.50
2022-11-13T12:38:29.169Z,8.10
2022-11-13T12:41:23.745Z,8.65
2022-11-13T12:44:25.830Z,8.07
2022-11-13T12:47:13.426Z,8.32
2022-11-13T12:50:01.838Z,8.45
2022-11-13T12:52:59.890Z,8.90
2022-11-13T12:56:00.148Z,9.27
2022-11-13T12:59:28.385Z,8.63
2022-11-13T13:02:49.362Z,9.10
2022-11-13T13:05:54.015Z,9.13
2022-11-13T13:08:50.463Z,8.93
2022-11-13T13:11:45.006Z,9.25
2022-11-13T13:14:44.112Z,8.35
2022-11-13T13:17:32.476Z,9.77
2022-11-13T13:20:34.778Z,8.98
2022-11-13T13:23:29.817Z,8.68
2022-11-13T13:26:20.218Z,9.18
2022-11-13T13:29:18.773Z,8.57
2022-11-13T13:32:17.878Z,8.75
2022-11-13T13:35:15.880Z,8.65
2022-11-13T13:38:11.752Z,9.15
2022-11-13T13:41:10.683Z,8.90
2022-11-13T13:44:11.913Z,8.85
2022-11-13T13:46:59.359Z,8.65
2022-11-13T13:49:45.982Z,9.10
2022-11-13T13:52:36.185Z,8.85
2022-11-13T13:55:29.290Z,9.00
2022-11-13T13:58:19.585Z,10.27
2022-11-13T14:01:23.493Z,8.57
2022-11-13T14:04:16.440Z,8.75
2022-11-13T14:07:04.078Z,9.18
2022-11-13T14:10:06.273Z,8.48
2022-11-13T14:12:53.349Z,9.13
2022-11-13T14:15:39.999Z,8.25
2022-11-13T14:18:27.509Z,8.15
2022-11-13T14:21:19.701Z,8.77
2022-11-13T14:24:09.974Z,8.95
2022-11-13T14:26:59.318Z,9.05
2022-11-13T14:29:48.925Z,9.77
2022-11-13T14:32:46.705Z,9.90
2022-11-13T14:35:33.850Z,8.70
2022-11-13T14:38:23.073Z,8.45
2022-11-13T14:41:21.205Z,8.90
2022-11-13T14:44:11.728Z,9.90
2022-11-13T14:47:03.930Z,9.55
2022-11-13T14:49:50.436Z,9.50
2022-11-13T14:52:37.270Z,9.95
2022-11-13T14:55:26.185Z,14.70
2022-11-13T14:58:15.046Z,10.98
2022-11-13T15:01:16.077Z,11.63
2022-11-13T15:04:02.727Z,10.20
2022-11-13T15:06:50.887Z,10.75
2022-11-13T15:09:37.450Z,10.20
2022-11-13T15:12:23.848Z,10.23
2022-11-13T15:15:15.402Z,10.68
2022-11-13T15:18:03.724Z,10.93
2022-11-13T15:20:51.789Z,10.68
2022-11-13T15:23:38.457Z,10.35
2022-11-13T15:26:25.260Z,10.88
2022-11-13T15:29:11.638Z,10.60
2022-11-13T15:31:58.938Z,11.68
2022-11-13T15:34:46.977Z,11.25
2022-11-13T15:37:33.609Z,11.20
2022-11-13T15:40:20.200Z,11.35
2022-11-13T15:43:07.183Z,11.23
2022-11-13T15:45:53.905Z,11.85
2022-11-13T15:48:40.636Z,11.00
2022-11-13T15:51:34.282Z,12.10
2022-11-13T15:54:25.824Z,11.98
2022-11-13T15:57:19.697Z,11.60
2022-11-13T16:00:13.763Z,11.80
2022-11-13T16:03:00.370Z,11.25
2022-11-13T16:05:46.841Z,11.13
2022-11-13T16:08:34.690Z,10.63
2022-11-13T16:11:22.138Z,10.85
2022-11-13T16:14:09.031Z,11.32
2022-11-13T16:16:56.022Z,11.48
2022-11-13T16:19:43.481Z,11.95
2022-11-13T16:22:30.195Z,11.65
2022-11-13T16:25:20.391Z,12.73
2022-11-13T16:28:09.696Z,12.50
2022-11-13T16:30:58.100Z,12.75
2022-11-13T16:33:45.548Z,13.52
2022-11-13T16:36:32.532Z,15.20
2022-11-13T16:39:19.061Z,14.48
2022-11-13T16:42:07.227Z,14.30
2022-11-13T16:44:54.183Z,13.73
2022-11-13T16:47:40.653Z,13.88
2022-11-13T16:50:30.899Z,13.68
2022-11-13T16:53:17.665Z,13.25
2022-11-13T16:56:13.088Z,12.77
2022-11-13T16:59:01.126Z,12.90
2022-11-13T17:01:48.011Z,13.48
2022-11-13T17:04:34.800Z,13.90
2022-11-13T17:07:21.317Z,14.05
2022-11-13T17:10:30.401Z,12.80
2022-11-13T17:13:17.927Z,11.70
2022-11-13T17:16:06.856Z,11.57
2022-11-13T17:18:53.979Z,11.52
2022-11-13T17:21:44.187Z,11.90
2022-11-13T17:24:30.977Z,12.50
2022-11-13T17:27:17.754Z,12.50
2022-11-13T17:30:05.439Z,12.13
2022-11-13T17:32:53.431Z,12.20
2022-11-13T17:35:43.096Z,12.13
2022-11-13T17:38:32.911Z,11.27
2022-11-13T17:41:19.913Z,12.55
2022-11-13T17:44:07.272Z,12.65
2022-11-13T17:46:53.892Z,12.80
2022-11-13T17:49:41.853Z,12.25
2022-11-13T17:52:28.729Z,12.50
2022-11-13T17:55:15.336Z,13.57
2022-11-13T17:58:02.845Z,13.75
2022-11-13T18:00:49.929Z,14.07
2022-11-13T18:03:39.165Z,14.13
2022-11-13T18:06:27.101Z,15.32
2022-11-13T18:09:13.581Z,14.98
2022-11-13T18:12:00.208Z,14.90
2022-11-13T18:14:52.241Z,17.38
2022-11-13T18:17:38.832Z,20.08
2022-11-13T18:20:25.396Z,20.05
2022-11-13T18:23:13.932Z,22.63
2022-11-13T18:26:10.961Z,23.27
2022-11-13T18:28:58.033Z,23.90
2022-11-13T18:31:45.158Z,23.33
2022-11-13T18:34:32.638Z,23.70
2022-11-13T18:37:19.686Z,23.30
2022-11-13T18:40:09.804Z,21.92
2022-11-13T18:42:56.328Z,22.02
2022-11-13T18:45:43.497Z,21.90
2022-11-13T18:48:37.040Z,20.55
2022-11-13T18:51:25.803Z,20.80
2022-11-13T18:54:12.957Z,20.85
2022-11-13T18:57:01.074Z,20.25
2022-11-13T18:59:47.715Z,20.90
2022-11-13T19:02:34.811Z,20.25
2022-11-13T19:05:21.760Z,20.67
2022-11-13T19:08:08.844Z,20.25
2022-11-13T19:10:55.587Z,19.27
2022-11-13T19:13:45.221Z,20.23
2022-11-13T19:16:35.605Z,18.85
2022-11-13T19:19:24.371Z,18.50
2022-11-13T19:22:11.258Z,18.05
2022-11-13T19:24:57.937Z,19.15
2022-11-13T19:27:44.763Z,20.13
2022-11-13T19:30:32.990Z,18.38
2022-11-13T19:33:19.965Z,18.55
2022-11-13T19:36:09.842Z,19.02
2022-11-13T19:38:57.234Z,18.77
2022-11-13T19:41:44.257Z,19.83
2022-11-13T19:44:30.885Z,19.55
2022-11-13T19:47:19.639Z,17.83
2022-11-13T19:50:07.353Z,18.75
2022-11-13T19:52:54.613Z,18.38
2022-11-13T19:55:41.942Z,20.48
2022-11-13T19:58:29.343Z,20.30
2022-11-13T20:01:18.553Z,20.60
2022-11-13T20:04:08.034Z,22.50
2022-11-13T20:06:54.919Z,20.92
2022-11-13T20:09:41.892Z,21.38
2022-11-13T20:12:29.665Z,22.25
2022-11-13T20:15:16.554Z,22.40
2022-11-13T20:18:03.320Z,22.52
2022-11-13T20:20:54.700Z,21.52
2022-11-13T20:23:42.255Z,22.35
2022-11-13T20:26:29.955Z,23.65
2022-11-13T20:29:16.879Z,21.98
2022-11-13T20:32:03.731Z,22.13
2022-11-13T20:34:50.861Z,22.55
2022-11-13T20:37:39.379Z,22.88
2022-11-13T20:40:26.493Z,24.23
2022-11-13T20:43:13.432Z,23.85
2022-11-13T20:46:04.602Z,22.23
2022-11-13T20:48:51.850Z,21.60
2022-11-13T20:51:38.477Z,21.95
2022-11-13T20:54:26.493Z,22.13
2022-11-13T20:57:13.993Z,20.77
2022-11-13T21:00:00.906Z,21.80
2022-11-13T21:02:47.853Z,20.50
2022-11-13T21:05:34.518Z,20.42
2022-11-13T21:08:21.555Z,20.23
2022-11-13T21:11:14.863Z,19.67
2022-11-13T21:14:01.909Z,19.38
2022-11-13T21:16:48.572Z,19.17
2022-11-13T21:19:35.664Z,20.08
2022-11-13T21:22:22.423Z,18.63
2022-11-13T21:25:10.063Z,18.02
2022-11-13T21:27:58.586Z,18.25
2022-11-13T21:30:45.586Z,18.88
2022-11-13T21:33:36.640Z,17.90
2022-11-13T21:36:25.522Z,17.10
2022-11-13T21:39:12.280Z,17.38
2022-11-13T21:41:58.936Z,17.70
2022-11-13T21:44:47.188Z,17.27
2022-11-13T21:47:34.298Z,16.13
2022-11-13T21:50:21.076Z,16.35
2022-11-13T21:53:07.959Z,16.77
2022-11-13T21:55:54.601Z,15.50
2022-11-13T21:58:41.895Z,16.05
2022-11-13T22:01:36.626Z,15.88
2022-11-13T22:04:25.184Z,15.90
2022-11-13T22:07:12.266Z,17.13
2022-11-13T22:10:00.173Z,15.35
2022-11-13T22:12:49.829Z,15.52
2022-11-13T22:15:36.746Z,16.70
2022-11-13T22:18:25.195Z,15.85
2022-11-13T22:21:14.300Z,16.52
2022-11-13T22:24:01.690Z,17.02
2022-11-13T22:26:48.939Z,15.85
2022-11-13T22:29:35.585Z,17.77
2022-11-13T22:32:22.218Z,17.13
2022-11-13T22:35:10.988Z,17.75
2022-11-13T22:37:57.589Z,18.33
2022-11-13T22:40:44.647Z,17.58
2022-11-13T22:43:34.538Z,19.65
2022-11-13T22:46:22.970Z,19.45
2022-11-13T22:49:12.059Z,18.83
2022-11-13T22:52:00.185Z,18.30
2022-11-13T22:54:47.099Z,18.65
2022-11-13T22:57:33.718Z,18.83
2022-11-13T23:00:20.840Z,19.27
2022-11-13T23:03:07.809Z,19.80
2022-11-13T23:05:54.443Z,19.50
2022-11-13T23:08:42.519Z,20.02
2022-11-13T23:11:30.732Z,22.00
2022-11-13T23:14:18.021Z,21.50
2022-11-13T23:17:08.474Z,22.15
2022-11-13T23:19:55.297Z,21.60
2022-11-13T23:22:41.826Z,21.95
2022-11-13T23:25:30.009Z,21.40
2022-11-13T23:28:16.902Z,21.75
2022-11-13T23:31:04.217Z,22.02
2022-11-13T23:33:51.328Z,23.80
2022-11-13T23:36:37.938Z,23.52
2022-11-13T23:39:27.445Z,24.23
2022-11-13T23:42:23.949Z,25.70
2022-11-13T23:45:20.338Z,25.88
2022-11-13T23:48:07.589Z,25.65
2022-11-13T23:50:54.257Z,25.42
2022-11-13T23:53:41.090Z,25.55
2022-11-13T23:56:27.701Z,26.48
2022-11-13T23:59:16.224Z,26.45
